GHC weather

Great Harbour Cay Airport
Bullocks Harbour, Nicholls Town and Berry Islands, Bahamas

Public forecast

Using degrees Celsius for public forecast. Weather courtesy of forecast.io.

METAR (pilot weather report)

Closest report is Lynden Pindling International Airport, 46.6 nm (86.4 km) SSE. Retrieved 2019/09/17 09:00 UTC (48 minutes ago):

MYNN 170900Z 29005KT 9999 SCT020 27/25 A2988

TAF (pilot weather forecast)

Closest forecast is Lynden Pindling International Airport, 46.6 nm (86.4 km) SSE. Retrieved 2019/09/17 06:33 UTC (3 hours ago):

TAF MYNN 170450Z 1706/1806 28004KT 9999 VCSH SCT020 SCT200 PROB30 TEMPO 1718/1722 31012G22KT 8000 TSRA FEW015CB SCT018 BKN200